LPE2109 SPJC-SPQU
Flight info
| Callsign | LPE2109 |
|---|---|
| Flight time | 1h 3m |
| Altitude | 35000 |
| Route | PAKOL5 AKSOL UT222 ASUPA ASUP1B |
| Aircraft | A320/M-SDE3FGHIRWY/LB1 |
Departure
| Time | 2026-04-25 16:38 |
|---|---|
| Airport | Jorge Chávez International Airport (SPJC) |
Arrival
| Time | 2026-04-25 17:42 |
|---|---|
| Airport | Rodríguez Ballón International Airport (SPQU) |
| Time | Latitude | Longitude | Altitude | Speed | Heading |
|---|---|---|---|---|---|
| 2026-04-25 16:13 | -12.02681 | -77.11687 | 116 ft | 0 kts | 243° |
| 2026-04-25 16:24 | -12.02679 | -77.11682 | 116 ft | 2 kts | 244° |
| 2026-04-25 16:24 | -12.02673 | -77.11669 | 116 ft | 2 kts | 243° |
| 2026-04-25 16:24 | -12.02666 | -77.11655 | 116 ft | 2 kts | 243° |
| 2026-04-25 16:25 | -12.02661 | -77.11642 | 116 ft | 2 kts | 280° |
| 2026-04-25 16:25 | -12.02665 | -77.11632 | 116 ft | 2 kts | 313° |
| 2026-04-25 16:25 | -12.02674 | -77.11626 | 116 ft | 1 kts | 338° |
| 2026-04-25 16:25 | -12.02676 | -77.11625 | 116 ft | 0 kts | 335° |
| 2026-04-25 16:27 | -12.02671 | -77.11627 | 116 ft | 1 kts | 334° |
| 2026-04-25 16:28 | -12.02652 | -77.11637 | 116 ft | 4 kts | 333° |
| 2026-04-25 16:28 | -12.02619 | -77.11653 | 116 ft | 6 kts | 334° |
| 2026-04-25 16:28 | -12.02573 | -77.11676 | 116 ft | 8 kts | 334° |
| 2026-04-25 16:28 | -12.02515 | -77.11704 | 116 ft | 9 kts | 334° |
| 2026-04-25 16:29 | -12.02449 | -77.11738 | 116 ft | 11 kts | 334° |
| 2026-04-25 16:29 | -12.02396 | -77.11726 | 116 ft | 8 kts | 52° |
| 2026-04-25 16:29 | -12.02364 | -77.11667 | 116 ft | 10 kts | 64° |
| 2026-04-25 16:29 | -12.02312 | -77.11628 | 116 ft | 10 kts | 344° |
| 2026-04-25 16:30 | -12.02242 | -77.11661 | 116 ft | 11 kts | 335° |
| 2026-04-25 16:30 | -12.02164 | -77.11699 | 116 ft | 12 kts | 335° |
| 2026-04-25 16:30 | -12.02081 | -77.11740 | 116 ft | 13 kts | 335° |
| 2026-04-25 16:30 | -12.01994 | -77.11782 | 116 ft | 14 kts | 334° |
| 2026-04-25 16:31 | -12.01903 | -77.11830 | 116 ft | 14 kts | 333° |
| 2026-04-25 16:31 | -12.01858 | -77.11871 | 116 ft | 7 kts | 272° |
| 2026-04-25 16:31 | -12.01880 | -77.11928 | 116 ft | 9 kts | 243° |
| 2026-04-25 16:31 | -12.01911 | -77.11993 | 116 ft | 10 kts | 244° |
| 2026-04-25 16:32 | -12.01946 | -77.12066 | 116 ft | 12 kts | 244° |
| 2026-04-25 16:32 | -12.01985 | -77.12148 | 116 ft | 13 kts | 244° |
| 2026-04-25 16:32 | -12.02026 | -77.12237 | 116 ft | 14 kts | 244° |
| 2026-04-25 16:32 | -12.02071 | -77.12331 | 116 ft | 15 kts | 244° |
| 2026-04-25 16:33 | -12.02114 | -77.12421 | 116 ft | 9 kts | 244° |
| 2026-04-25 16:33 | -12.02116 | -77.12481 | 116 ft | 10 kts | 328° |
| 2026-04-25 16:33 | -12.02049 | -77.12517 | 116 ft | 11 kts | 335° |
| 2026-04-25 16:33 | -12.01975 | -77.12553 | 116 ft | 12 kts | 334° |
| 2026-04-25 16:34 | -12.01893 | -77.12594 | 116 ft | 13 kts | 334° |
| 2026-04-25 16:34 | -12.01811 | -77.12633 | 116 ft | 13 kts | 335° |
| 2026-04-25 16:34 | -12.01727 | -77.12676 | 116 ft | 13 kts | 334° |
| 2026-04-25 16:34 | -12.01640 | -77.12720 | 116 ft | 14 kts | 334° |
| 2026-04-25 16:35 | -12.01545 | -77.12766 | 116 ft | 15 kts | 333° |
| 2026-04-25 16:35 | -12.01450 | -77.12814 | 116 ft | 15 kts | 334° |
| 2026-04-25 16:35 | -12.01360 | -77.12858 | 116 ft | 12 kts | 334° |
| 2026-04-25 16:35 | -12.01278 | -77.12898 | 116 ft | 13 kts | 334° |
| 2026-04-25 16:36 | -12.01188 | -77.12933 | 116 ft | 13 kts | 340° |
| 2026-04-25 16:36 | -12.01160 | -77.12946 | 116 ft | 12 kts | 324° |
| 2026-04-25 16:36 | -12.01185 | -77.13049 | 116 ft | 10 kts | 245° |
| 2026-04-25 16:36 | -12.01220 | -77.13104 | 116 ft | 4 kts | 195° |
| 2026-04-25 16:37 | -12.01227 | -77.13102 | 116 ft | 0 kts | 154° |
| 2026-04-25 16:37 | -12.01386 | -77.13024 | 116 ft | 63 kts | 154° |
| 2026-04-25 16:37 | -12.02017 | -77.12712 | 116 ft | 133 kts | 154° |
| 2026-04-25 16:38 | -12.02978 | -77.12238 | 371 ft | 161 kts | 156° |
| 2026-04-25 16:38 | -12.03964 | -77.11725 | 978 ft | 161 kts | 153° |
| 2026-04-25 16:38 | -12.04958 | -77.11153 | 1388 ft | 171 kts | 152° |
| 2026-04-25 16:38 | -12.06040 | -77.10507 | 1728 ft | 187 kts | 151° |
| 2026-04-25 16:39 | -12.07197 | -77.09816 | 2168 ft | 198 kts | 151° |
| 2026-04-25 16:39 | -12.08450 | -77.09062 | 2474 ft | 221 kts | 150° |
| 2026-04-25 16:39 | -12.09697 | -77.07987 | 2862 ft | 244 kts | 135° |
| 2026-04-25 16:39 | -12.10842 | -77.06615 | 3383 ft | 260 kts | 131° |
| 2026-04-25 16:40 | -12.11995 | -77.05182 | 4183 ft | 264 kts | 130° |
| 2026-04-25 16:40 | -12.13166 | -77.03745 | 5024 ft | 266 kts | 130° |
| 2026-04-25 16:40 | -12.14378 | -77.02278 | 5801 ft | 270 kts | 130° |
| 2026-04-25 16:40 | -12.15607 | -77.00804 | 6561 ft | 275 kts | 130° |
| 2026-04-25 16:41 | -12.16855 | -76.99321 | 7342 ft | 279 kts | 130° |
| 2026-04-25 16:41 | -12.17705 | -76.98315 | 7864 ft | 281 kts | 130° |
| 2026-04-25 16:41 | -12.20733 | -76.94750 | 9632 ft | 290 kts | 130° |
| 2026-04-25 16:42 | -12.22078 | -76.93171 | 10376 ft | 294 kts | 130° |
| 2026-04-25 16:42 | -12.23448 | -76.91567 | 10822 ft | 309 kts | 130° |
| 2026-04-25 16:42 | -12.24901 | -76.89864 | 11374 ft | 318 kts | 130° |
| 2026-04-25 16:42 | -12.26354 | -76.88161 | 12095 ft | 321 kts | 130° |
| 2026-04-25 16:43 | -12.27822 | -76.86442 | 12806 ft | 323 kts | 130° |
| 2026-04-25 16:43 | -12.29308 | -76.84701 | 13495 ft | 326 kts | 130° |
| 2026-04-25 16:43 | -12.30810 | -76.82941 | 14170 ft | 328 kts | 130° |
| 2026-04-25 16:43 | -12.32313 | -76.81181 | 14824 ft | 331 kts | 130° |
| 2026-04-25 16:44 | -12.33823 | -76.79411 | 15452 ft | 333 kts | 130° |
| 2026-04-25 16:44 | -12.35367 | -76.77600 | 16075 ft | 336 kts | 130° |
| 2026-04-25 16:44 | -12.36902 | -76.75800 | 16678 ft | 338 kts | 130° |
| 2026-04-25 16:44 | -12.38458 | -76.73975 | 17274 ft | 340 kts | 130° |
| 2026-04-25 16:45 | -12.40015 | -76.72149 | 17844 ft | 343 kts | 130° |
| 2026-04-25 16:45 | -12.41586 | -76.70306 | 18404 ft | 345 kts | 130° |
| 2026-04-25 16:45 | -12.43174 | -76.68443 | 18939 ft | 348 kts | 130° |
| 2026-04-25 16:45 | -12.44767 | -76.66571 | 19455 ft | 351 kts | 130° |
| 2026-04-25 16:46 | -12.46399 | -76.64655 | 19969 ft | 353 kts | 130° |
| 2026-04-25 16:46 | -12.48022 | -76.62750 | 20467 ft | 356 kts | 130° |
| 2026-04-25 16:46 | -12.49663 | -76.60822 | 20957 ft | 359 kts | 130° |
| 2026-04-25 16:46 | -12.50203 | -76.60188 | 21115 ft | 360 kts | 130° |
| 2026-04-25 16:47 | -12.52973 | -76.56934 | 21905 ft | 364 kts | 130° |
| 2026-04-25 16:47 | -12.54653 | -76.54959 | 22366 ft | 367 kts | 130° |
| 2026-04-25 16:47 | -12.56322 | -76.52998 | 22812 ft | 369 kts | 130° |
| 2026-04-25 16:47 | -12.58010 | -76.51012 | 23249 ft | 372 kts | 130° |
| 2026-04-25 16:48 | -12.59732 | -76.48987 | 23681 ft | 374 kts | 130° |
| 2026-04-25 16:48 | -12.61438 | -76.46981 | 24098 ft | 376 kts | 130° |
| 2026-04-25 16:48 | -12.63166 | -76.44948 | 24508 ft | 379 kts | 130° |
| 2026-04-25 16:48 | -12.64926 | -76.42878 | 24915 ft | 381 kts | 130° |
| 2026-04-25 16:49 | -12.66666 | -76.40829 | 25315 ft | 383 kts | 130° |
| 2026-04-25 16:49 | -12.68423 | -76.38761 | 25698 ft | 385 kts | 130° |
| 2026-04-25 16:49 | -12.70205 | -76.36664 | 26075 ft | 388 kts | 130° |
| 2026-04-25 16:49 | -12.71972 | -76.34583 | 26449 ft | 390 kts | 130° |
| 2026-04-25 16:50 | -12.73791 | -76.32439 | 26817 ft | 392 kts | 130° |
| 2026-04-25 16:50 | -12.75589 | -76.30321 | 27167 ft | 394 kts | 130° |
| 2026-04-25 16:50 | -12.77389 | -76.28200 | 27518 ft | 396 kts | 130° |
| 2026-04-25 16:50 | -12.79200 | -76.26064 | 27857 ft | 398 kts | 130° |
| 2026-04-25 16:51 | -12.81031 | -76.23904 | 28181 ft | 400 kts | 130° |
| 2026-04-25 16:51 | -12.82881 | -76.21723 | 28505 ft | 402 kts | 129° |
| 2026-04-25 16:51 | -12.84718 | -76.19556 | 28825 ft | 403 kts | 129° |
| 2026-04-25 16:51 | -12.85949 | -76.18103 | 29025 ft | 405 kts | 129° |
| 2026-04-25 16:52 | -12.88418 | -76.15188 | 29412 ft | 408 kts | 129° |
| 2026-04-25 16:52 | -12.90289 | -76.12980 | 29703 ft | 409 kts | 129° |
| 2026-04-25 16:52 | -12.92163 | -76.10767 | 29987 ft | 411 kts | 129° |
| 2026-04-25 16:52 | -12.94051 | -76.08536 | 30257 ft | 413 kts | 129° |
| 2026-04-25 16:53 | -12.97848 | -76.04050 | 30795 ft | 416 kts | 129° |
| 2026-04-25 16:53 | -12.99739 | -76.01814 | 31052 ft | 417 kts | 129° |
| 2026-04-25 16:53 | -13.01669 | -75.99532 | 31316 ft | 419 kts | 129° |
| 2026-04-25 16:54 | -13.03582 | -75.97268 | 31565 ft | 420 kts | 129° |
| 2026-04-25 16:54 | -13.05498 | -75.95002 | 31814 ft | 421 kts | 129° |
| 2026-04-25 16:54 | -13.07430 | -75.92715 | 32058 ft | 422 kts | 129° |
| 2026-04-25 16:54 | -13.09348 | -75.90445 | 32283 ft | 424 kts | 129° |
| 2026-04-25 16:55 | -13.11289 | -75.88146 | 32503 ft | 425 kts | 129° |
| 2026-04-25 16:55 | -13.13244 | -75.85832 | 32726 ft | 426 kts | 129° |
| 2026-04-25 16:55 | -13.15214 | -75.83499 | 32941 ft | 427 kts | 129° |
| 2026-04-25 16:55 | -13.17157 | -75.81195 | 33142 ft | 429 kts | 129° |
| 2026-04-25 16:56 | -13.19114 | -75.78876 | 33330 ft | 430 kts | 129° |
| 2026-04-25 16:56 | -13.21078 | -75.76547 | 33510 ft | 432 kts | 129° |
| 2026-04-25 16:56 | -13.23065 | -75.74191 | 33685 ft | 433 kts | 129° |
| 2026-04-25 16:56 | -13.25028 | -75.71863 | 33850 ft | 434 kts | 129° |
| 2026-04-25 16:57 | -13.27023 | -75.69493 | 34001 ft | 436 kts | 129° |
| 2026-04-25 16:57 | -13.31007 | -75.64764 | 34294 ft | 439 kts | 129° |
| 2026-04-25 16:57 | -13.32997 | -75.62401 | 34469 ft | 439 kts | 129° |
| 2026-04-25 16:58 | -13.35020 | -75.59998 | 34634 ft | 439 kts | 129° |
| 2026-04-25 16:58 | -13.37027 | -75.57613 | 34781 ft | 440 kts | 129° |
| 2026-04-25 16:58 | -13.39020 | -75.55245 | 34923 ft | 441 kts | 129° |
| 2026-04-25 16:58 | -13.41040 | -75.52844 | 35061 ft | 442 kts | 129° |
| 2026-04-25 16:59 | -13.43052 | -75.50451 | 35109 ft | 443 kts | 129° |
| 2026-04-25 16:59 | -13.47078 | -75.45660 | 35113 ft | 443 kts | 129° |
| 2026-04-25 17:00 | -13.51135 | -75.40831 | 35113 ft | 443 kts | 129° |
| 2026-04-25 17:00 | -13.55166 | -75.36031 | 35113 ft | 443 kts | 129° |
| 2026-04-25 17:01 | -13.59221 | -75.31198 | 35114 ft | 444 kts | 129° |
| 2026-04-25 17:01 | -13.63276 | -75.26361 | 35113 ft | 444 kts | 129° |
| 2026-04-25 17:02 | -13.67321 | -75.21534 | 35114 ft | 444 kts | 129° |
| 2026-04-25 17:02 | -13.71357 | -75.16717 | 35114 ft | 444 kts | 129° |
| 2026-04-25 17:03 | -13.75401 | -75.11887 | 35114 ft | 444 kts | 129° |
| 2026-04-25 17:03 | -13.79443 | -75.07056 | 35122 ft | 445 kts | 129° |
| 2026-04-25 17:04 | -13.83473 | -75.02237 | 35151 ft | 445 kts | 129° |
| 2026-04-25 17:04 | -13.87539 | -74.97370 | 35190 ft | 445 kts | 129° |
| 2026-04-25 17:05 | -13.91565 | -74.92551 | 35229 ft | 445 kts | 129° |
| 2026-04-25 17:05 | -13.97632 | -74.85281 | 35281 ft | 445 kts | 129° |
| 2026-04-25 17:06 | -14.01678 | -74.80428 | 35305 ft | 446 kts | 129° |
| 2026-04-25 17:06 | -14.05737 | -74.75556 | 35320 ft | 447 kts | 129° |
| 2026-04-25 17:07 | -14.09791 | -74.70692 | 35326 ft | 447 kts | 129° |
| 2026-04-25 17:07 | -14.13862 | -74.65803 | 35328 ft | 447 kts | 129° |
| 2026-04-25 17:08 | -14.17923 | -74.60923 | 35329 ft | 447 kts | 129° |
| 2026-04-25 17:08 | -14.21978 | -74.56046 | 35329 ft | 447 kts | 129° |
| 2026-04-25 17:09 | -14.26051 | -74.51146 | 35329 ft | 447 kts | 129° |
| 2026-04-25 17:09 | -14.30139 | -74.46223 | 35329 ft | 447 kts | 129° |
| 2026-04-25 17:10 | -14.34219 | -74.41307 | 35329 ft | 447 kts | 129° |
| 2026-04-25 17:10 | -14.38263 | -74.36432 | 35329 ft | 447 kts | 129° |
| 2026-04-25 17:11 | -14.42297 | -74.31565 | 35329 ft | 447 kts | 129° |
| 2026-04-25 17:11 | -14.46350 | -74.26674 | 35317 ft | 447 kts | 129° |
| 2026-04-25 17:12 | -14.50323 | -74.21875 | 35294 ft | 447 kts | 129° |
| 2026-04-25 17:12 | -14.54523 | -74.16799 | 35264 ft | 448 kts | 129° |
| 2026-04-25 17:13 | -14.57224 | -74.13533 | 35243 ft | 448 kts | 129° |
| 2026-04-25 17:13 | -14.62648 | -74.06971 | 35249 ft | 448 kts | 129° |
| 2026-04-25 17:14 | -14.66800 | -74.01941 | 35300 ft | 448 kts | 129° |
| 2026-04-25 17:14 | -14.70877 | -73.97001 | 35365 ft | 448 kts | 129° |
| 2026-04-25 17:15 | -14.74980 | -73.92028 | 35432 ft | 447 kts | 129° |
| 2026-04-25 17:15 | -14.79027 | -73.87119 | 35493 ft | 447 kts | 129° |
| 2026-04-25 17:16 | -14.83066 | -73.82215 | 35525 ft | 446 kts | 129° |
| 2026-04-25 17:16 | -14.87123 | -73.77288 | 35538 ft | 446 kts | 129° |
| 2026-04-25 17:17 | -14.91143 | -73.72403 | 35542 ft | 446 kts | 129° |
| 2026-04-25 17:17 | -14.95188 | -73.67483 | 35537 ft | 447 kts | 129° |
| 2026-04-25 17:18 | -14.99238 | -73.62555 | 35528 ft | 447 kts | 129° |
| 2026-04-25 17:18 | -15.03295 | -73.57615 | 35515 ft | 447 kts | 129° |
| 2026-04-25 17:19 | -15.07358 | -73.52664 | 35504 ft | 447 kts | 129° |
| 2026-04-25 17:19 | -15.11408 | -73.47724 | 35497 ft | 447 kts | 129° |
| 2026-04-25 17:20 | -15.15429 | -73.42819 | 35494 ft | 447 kts | 129° |
| 2026-04-25 17:20 | -15.19502 | -73.37849 | 35493 ft | 447 kts | 129° |
| 2026-04-25 17:21 | -15.23530 | -73.32928 | 35493 ft | 447 kts | 129° |
| 2026-04-25 17:21 | -15.27616 | -73.27932 | 35493 ft | 447 kts | 129° |
| 2026-04-25 17:22 | -15.30977 | -73.23822 | 35493 ft | 447 kts | 129° |
| 2026-04-25 17:22 | -15.35689 | -73.18054 | 35493 ft | 447 kts | 129° |
| 2026-04-25 17:23 | -15.39718 | -73.13120 | 35491 ft | 447 kts | 129° |
| 2026-04-25 17:23 | -15.43693 | -73.08248 | 35487 ft | 447 kts | 129° |
| 2026-04-25 17:24 | -15.47772 | -73.03245 | 35482 ft | 447 kts | 129° |
| 2026-04-25 17:24 | -15.51810 | -72.98289 | 35477 ft | 447 kts | 129° |
| 2026-04-25 17:25 | -15.55883 | -72.93287 | 35470 ft | 447 kts | 129° |
| 2026-04-25 17:25 | -15.59916 | -72.88330 | 35460 ft | 446 kts | 129° |
| 2026-04-25 17:26 | -15.63936 | -72.83388 | 35447 ft | 446 kts | 129° |
| 2026-04-25 17:26 | -15.67946 | -72.78451 | 35434 ft | 446 kts | 130° |
| 2026-04-25 17:27 | -15.71955 | -72.73513 | 35423 ft | 446 kts | 130° |
| 2026-04-25 17:27 | -15.74624 | -72.70225 | 35418 ft | 446 kts | 130° |
| 2026-04-25 17:28 | -15.80109 | -72.63460 | 35414 ft | 446 kts | 130° |
| 2026-04-25 17:28 | -15.84154 | -72.58467 | 35413 ft | 446 kts | 130° |
| 2026-04-25 17:29 | -15.88153 | -72.53375 | 35412 ft | 446 kts | 126° |
| 2026-04-25 17:29 | -15.91676 | -72.48123 | 34879 ft | 431 kts | 124° |
| 2026-04-25 17:30 | -15.93399 | -72.45503 | 33697 ft | 431 kts | 124° |
| 2026-04-25 17:30 | -15.95100 | -72.42915 | 32371 ft | 433 kts | 124° |
| 2026-04-25 17:30 | -15.96799 | -72.40334 | 30883 ft | 437 kts | 124° |
| 2026-04-25 17:30 | -15.98522 | -72.37716 | 29462 ft | 436 kts | 124° |
| 2026-04-25 17:31 | -16.00211 | -72.35151 | 28289 ft | 428 kts | 124° |
| 2026-04-25 17:31 | -16.01915 | -72.32566 | 27139 ft | 420 kts | 124° |
| 2026-04-25 17:31 | -16.03564 | -72.30063 | 25735 ft | 418 kts | 124° |
| 2026-04-25 17:31 | -16.05230 | -72.27533 | 24359 ft | 414 kts | 124° |
| 2026-04-25 17:32 | -16.06854 | -72.25067 | 23158 ft | 406 kts | 124° |
| 2026-04-25 17:32 | -16.08432 | -72.22672 | 21969 ft | 399 kts | 123° |
| 2026-04-25 17:32 | -16.09997 | -72.20300 | 20769 ft | 392 kts | 123° |
| 2026-04-25 17:32 | -16.11557 | -72.17933 | 19569 ft | 386 kts | 123° |
| 2026-04-25 17:33 | -16.13086 | -72.15609 | 18383 ft | 381 kts | 123° |
| 2026-04-25 17:33 | -16.14580 | -72.13336 | 17230 ft | 375 kts | 123° |
| 2026-04-25 17:33 | -16.16038 | -72.11111 | 16116 ft | 370 kts | 123° |
| 2026-04-25 17:33 | -16.17489 | -72.08894 | 15099 ft | 376 kts | 124° |
| 2026-04-25 17:34 | -16.18965 | -72.06644 | 14683 ft | 369 kts | 124° |
| 2026-04-25 17:34 | -16.20391 | -72.04473 | 14306 ft | 362 kts | 124° |
| 2026-04-25 17:34 | -16.21814 | -72.02306 | 13923 ft | 355 kts | 124° |
| 2026-04-25 17:34 | -16.23181 | -72.00223 | 13547 ft | 349 kts | 124° |
| 2026-04-25 17:35 | -16.24547 | -71.98140 | 13121 ft | 345 kts | 124° |
| 2026-04-25 17:35 | -16.25889 | -71.96094 | 12698 ft | 341 kts | 124° |
| 2026-04-25 17:35 | -16.27226 | -71.94053 | 12276 ft | 337 kts | 124° |
| 2026-04-25 17:35 | -16.28520 | -71.92076 | 12010 ft | 327 kts | 125° |
| 2026-04-25 17:36 | -16.29782 | -71.90150 | 11962 ft | 307 kts | 125° |
| 2026-04-25 17:36 | -16.30960 | -71.88352 | 11909 ft | 292 kts | 125° |
| 2026-04-25 17:36 | -16.31949 | -71.86777 | 11857 ft | 280 kts | 118° |
| 2026-04-25 17:36 | -16.32585 | -71.84905 | 11796 ft | 268 kts | 99° |
| 2026-04-25 17:37 | -16.32763 | -71.82998 | 11756 ft | 259 kts | 94° |
| 2026-04-25 17:37 | -16.32846 | -71.81083 | 11702 ft | 255 kts | 93° |
| 2026-04-25 17:37 | -16.32920 | -71.79261 | 11572 ft | 246 kts | 93° |
| 2026-04-25 17:37 | -16.33000 | -71.77510 | 11508 ft | 236 kts | 94° |
| 2026-04-25 17:38 | -16.33083 | -71.75826 | 11434 ft | 225 kts | 94° |
| 2026-04-25 17:38 | -16.33110 | -71.75280 | 11326 ft | 224 kts | 94° |
| 2026-04-25 17:38 | -16.33246 | -71.72668 | 10715 ft | 211 kts | 94° |
| 2026-04-25 17:38 | -16.33326 | -71.71163 | 10433 ft | 206 kts | 94° |
| 2026-04-25 17:39 | -16.33404 | -71.69693 | 10183 ft | 199 kts | 94° |
| 2026-04-25 17:39 | -16.33479 | -71.68272 | 9942 ft | 193 kts | 94° |
| 2026-04-25 17:39 | -16.33552 | -71.66888 | 9707 ft | 186 kts | 94° |
| 2026-04-25 17:39 | -16.33619 | -71.65588 | 9493 ft | 175 kts | 94° |
| 2026-04-25 17:40 | -16.33682 | -71.64364 | 9301 ft | 164 kts | 95° |
| 2026-04-25 17:40 | -16.33748 | -71.63184 | 9098 ft | 166 kts | 94° |
| 2026-04-25 17:40 | -16.33811 | -71.61973 | 8911 ft | 166 kts | 94° |
| 2026-04-25 17:40 | -16.33878 | -71.60777 | 8699 ft | 166 kts | 94° |
| 2026-04-25 17:41 | -16.33936 | -71.59576 | 8488 ft | 165 kts | 94° |
| 2026-04-25 17:41 | -16.33990 | -71.58382 | 8313 ft | 164 kts | 94° |
| 2026-04-25 17:41 | -16.34051 | -71.57292 | 8369 ft | 129 kts | 92° |
| 2026-04-25 17:41 | -16.34089 | -71.56541 | 8414 ft | 75 kts | 93° |
| 2026-04-25 17:42 | -16.34109 | -71.56130 | 8426 ft | 43 kts | 92° |
| 2026-04-25 17:42 | -16.34126 | -71.55834 | 8426 ft | 38 kts | 93° |
| 2026-04-25 17:42 | -16.34156 | -71.55725 | 8423 ft | 12 kts | 208° |
| 2026-04-25 17:42 | -16.34221 | -71.55818 | 8414 ft | 18 kts | 241° |
| 2026-04-25 17:43 | -16.34299 | -71.55949 | 8401 ft | 24 kts | 237° |
| 2026-04-25 17:43 | -16.34379 | -71.56083 | 8385 ft | 20 kts | 257° |
| 2026-04-25 17:43 | -16.34375 | -71.56239 | 8378 ft | 22 kts | 273° |
| 2026-04-25 17:43 | -16.34366 | -71.56404 | 8375 ft | 21 kts | 273° |
| 2026-04-25 17:44 | -16.34358 | -71.56558 | 8373 ft | 21 kts | 272° |
| 2026-04-25 17:44 | -16.34349 | -71.56709 | 8366 ft | 19 kts | 274° |
| 2026-04-25 17:44 | -16.34351 | -71.56825 | 8362 ft | 12 kts | 225° |
| 2026-04-25 17:44 | -16.34383 | -71.56857 | 8360 ft | 0 kts | 227° |